Time;durP1;ratioP1;P1;durP2;ratioP2;P2;SDS_P1;SDS_P2;PMS_P1;PMS_P2;Temp;Humidity;BMP_temperature;BMP_pressure;BME280_temperature;BME280_humidity;BME280_pressure;Samples;Min_cycle;Max_cycle;Signal;HPM_P1;HPM_P2
2022/03/17 00:01:46;;;;;;;21.27;17.38;;;;;;;19.25;42.94;101577.69;5045554;28;20029;-43
2022/03/17 00:04:11;;;;;;;21.05;18.77;;;;;;;19.23;42.96;101588.44;5045639;28;20041;-43
2022/03/17 00:06:37;;;;;;;22.13;17.48;;;;;;;19.22;42.99;101585.97;5044353;28;20043;-46
2022/03/17 00:09:04;;;;;;;21.00;16.25;;;;;;;19.22;42.94;101597.38;5046920;28;20065;-41
2022/03/17 00:11:30;;;;;;;20.35;17.30;;;;;;;19.20;43.02;101580.03;5047456;28;20035;-44
2022/03/17 00:13:56;;;;;;;20.33;16.63;;;;;;;19.19;42.99;101571.28;5029638;28;20057;-43
2022/03/17 00:16:23;;;;;;;17.25;15.45;;;;;;;19.18;43.03;101576.75;5030197;28;20045;-40
2022/03/17 00:18:48;;;;;;;17.63;15.30;;;;;;;19.17;42.91;101575.09;5048638;28;20441;-42
2022/03/17 00:21:14;;;;;;;17.63;14.95;;;;;;;19.16;43.08;101571.63;5048383;28;20065;-42
2022/03/17 00:23:40;;;;;;;19.42;17.38;;;;;;;19.16;43.06;101570.81;5048271;28;20126;-45
2022/03/17 00:26:05;;;;;;;21.63;17.92;;;;;;;19.16;43.05;101565.53;5048935;28;20572;-41
2022/03/17 00:28:31;;;;;;;19.08;17.08;;;;;;;19.16;42.64;101565.53;5049689;28;20425;-43
2022/03/17 00:30:56;;;;;;;20.25;17.08;;;;;;;19.17;42.71;101562.72;5048392;28;20037;-43
2022/03/17 00:33:22;;;;;;;19.73;17.60;;;;;;;19.17;42.69;101564.53;5049237;28;20126;-41
2022/03/17 00:35:48;;;;;;;19.45;16.30;;;;;;;19.17;42.57;101556.59;5047039;28;20491;-43
2022/03/17 00:38:18;;;;;;;23.08;17.45;;;;;;;19.16;42.25;101565.53;5048555;28;20029;-42
2022/03/17 00:40:46;;;;;;;21.45;17.52;;;;;;;19.16;42.51;101560.25;5042705;28;20029;-38
2022/03/17 00:43:12;;;;;;;22.73;17.38;;;;;;;19.16;42.43;101566.34;5047071;28;20033;-43
2022/03/17 00:45:40;;;;;;;20.23;15.95;;;;;;;19.15;42.63;101562.06;5046566;28;20033;-43
2022/03/17 00:48:06;;;;;;;19.10;16.77;;;;;;;19.14;42.49;101560.41;5046141;28;21124;-40
2022/03/17 00:50:33;;;;;;;20.42;16.92;;;;;;;19.15;42.46;101563.88;5030540;28;20182;-39
2022/03/17 00:52:59;;;;;;;20.45;16.63;;;;;;;19.14;42.51;101564.88;5048310;28;20032;-43
2022/03/17 00:55:25;;;;;;;17.70;15.85;;;;;;;19.13;42.58;101557.94;5046446;28;20025;-42
2022/03/17 00:57:51;;;;;;;17.92;14.75;;;;;;;19.11;42.65;101558.13;5048553;28;20040;-41
2022/03/17 01:00:18;;;;;;;19.13;15.10;;;;;;;19.09;42.84;101551.38;5047665;28;20029;-38
2022/03/17 01:02:49;;;;;;;19.40;16.13;;;;;;;19.07;42.84;101548.06;5031221;28;20041;-44
2022/03/17 01:05:15;;;;;;;16.20;14.50;;;;;;;19.06;42.81;101539.31;5043616;28;20025;-41
2022/03/17 01:07:42;;;;;;;15.98;14.07;;;;;;;19.04;42.73;101541.31;5048666;28;20475;-43
2022/03/17 01:10:09;;;;;;;16.38;14.45;;;;;;;19.04;42.89;101545.78;5046354;28;20473;-42
2022/03/17 01:12:35;;;;;;;18.90;15.10;;;;;;;19.02;42.93;101543.31;5048260;28;20029;-39
2022/03/17 01:15:01;;;;;;;16.27;14.52;;;;;;;19.01;42.90;101540.84;5047407;28;20684;-38
2022/03/17 01:17:27;;;;;;;19.50;14.48;;;;;;;18.99;42.84;101546.31;5044187;28;20047;-40
2022/03/17 01:19:53;;;;;;;17.15;14.27;;;;;;;18.98;42.76;101542.00;5047413;28;20037;-41
2022/03/17 01:22:19;;;;;;;16.90;15.10;;;;;;;18.97;42.84;101532.44;5047305;28;20066;-41
2022/03/17 01:24:46;;;;;;;19.63;13.95;;;;;;;18.96;42.91;101527.34;5047278;28;20479;-38
2022/03/17 01:27:12;;;;;;;15.73;13.68;;;;;;;18.95;42.84;101536.25;5029530;28;20032;-44
2022/03/17 01:29:40;;;;;;;16.63;14.13;;;;;;;18.93;42.87;101525.88;5046187;28;20021;-39
2022/03/17 01:32:07;;;;;;;17.08;13.70;;;;;;;18.93;42.93;101528.50;5025824;28;20032;-39
2022/03/17 01:34:32;;;;;;;17.30;14.07;;;;;;;18.93;42.96;101527.69;5045251;28;20025;-40
2022/03/17 01:36:58;;;;;;;18.77;14.13;;;;;;;18.91;42.96;101527.84;5048417;28;20033;-42
2022/03/17 01:39:23;;;;;;;15.40;13.70;;;;;;;18.90;43.03;101532.31;5047520;28;20551;-44
2022/03/17 01:41:50;;;;;;;16.23;13.63;;;;;;;18.90;42.98;101527.03;5040259;28;20041;-41
2022/03/17 01:44:15;;;;;;;16.10;12.93;;;;;;;18.90;42.89;101534.16;5041168;28;20083;-42
2022/03/17 01:49:24;;;;;;;16.40;13.82;;;;;;;18.88;43.06;101531.69;5047950;28;20399;-38
2022/03/17 01:51:50;;;;;;;16.83;14.23;;;;;;;18.88;42.83;101530.88;5046060;28;20176;-40
2022/03/17 01:54:19;;;;;;;17.40;12.52;;;;;;;18.87;42.93;101530.03;5047141;28;20029;-46
2022/03/17 01:56:46;;;;;;;15.20;13.15;;;;;;;18.86;42.90;101525.75;5038515;28;20028;-40
2022/03/17 01:59:12;;;;;;;16.20;14.23;;;;;;;18.86;42.83;101525.75;5046559;28;20029;-41
2022/03/17 02:01:38;;;;;;;15.98;13.60;;;;;;;18.84;42.78;101526.94;5041283;28;20039;-40
2022/03/17 02:04:05;;;;;;;13.98;12.43;;;;;;;18.83;42.68;101526.09;5047345;28;20209;-40
2022/03/17 02:06:31;;;;;;;14.93;13.43;;;;;;;18.82;42.96;101519.19;5047003;28;20040;-41
2022/03/17 02:08:57;;;;;;;14.13;12.63;;;;;;;18.81;42.82;101519.34;5045694;28;20051;-39
2022/03/17 02:14:07;;;;;;;16.83;13.30;;;;;;;18.77;42.94;101516.22;5007785;28;20060;-38
2022/03/17 02:16:32;;;;;;;15.50;12.93;;;;;;;18.77;42.94;101520.69;5008053;28;20030;-39
2022/03/17 02:18:59;;;;;;;15.80;13.45;;;;;;;18.76;42.89;101514.59;5008024;28;20249;-43
2022/03/17 02:21:25;;;;;;;15.43;12.90;;;;;;;18.75;42.88;101514.75;5007953;28;20046;-40
2022/03/17 02:26:37;;;;;;;14.52;13.02;;;;;;;18.72;42.94;101509.81;5008087;28;20044;-38
2022/03/17 02:29:02;;;;;;;15.88;13.95;;;;;;;18.72;42.97;101510.63;5007786;28;20485;-38
2022/03/17 02:31:28;;;;;;;18.45;14.20;;;;;;;18.71;42.86;101518.72;5007936;28;20079;-39
2022/03/17 02:33:54;;;;;;;16.63;14.00;;;;;;;18.70;42.92;101522.38;5007816;28;20392;-40
2022/03/17 02:36:19;;;;;;;18.90;14.30;;;;;;;18.68;42.89;101525.19;5007693;28;20054;-45
2022/03/17 02:38:45;;;;;;;15.27;13.43;;;;;;;18.68;42.81;101522.53;5007497;28;20022;-42
2022/03/17 02:41:21;;;;;;;15.68;14.00;;;;;;;18.67;42.86;101523.53;5006682;28;20107;-40
2022/03/17 02:43:56;;;;;;;16.73;14.60;;;;;;;18.64;43.03;101513.31;5007687;28;20101;-40
2022/03/17 02:46:21;;;;;;;13.35;11.90;;;;;;;18.64;43.00;101513.31;5004680;28;20442;-38
2022/03/17 02:48:47;;;;;;;17.75;15.07;;;;;;;18.65;43.04;101519.41;5007073;28;20397;-40
2022/03/17 02:51:13;;;;;;;18.42;13.80;;;;;;;18.65;43.08;101520.25;5007440;28;20186;-41
2022/03/17 02:53:38;;;;;;;14.52;12.82;;;;;;;18.64;43.28;101523.88;5006593;28;20106;-40
2022/03/17 02:56:04;;;;;;;16.88;15.05;;;;;;;18.64;43.31;101521.22;5007484;28;20029;-40
2022/03/17 02:58:31;;;;;;;16.90;13.45;;;;;;;18.65;43.14;101530.81;5007161;28;20389;-38
2022/03/17 03:00:57;;;;;;;15.85;14.00;;;;;;;18.66;43.00;101532.44;5005850;28;20030;-41
2022/03/17 03:03:23;;;;;;;16.00;14.10;;;;;;;18.66;42.92;101532.44;5006978;28;20495;-38
2022/03/17 03:05:49;;;;;;;18.85;13.95;;;;;;;18.68;42.79;101525.19;5005861;28;20109;-40
2022/03/17 03:08:15;;;;;;;15.05;12.88;;;;;;;18.67;42.90;101523.53;5007042;28;20586;-39
2022/03/17 03:10:41;;;;;;;14.27;12.50;;;;;;;18.67;42.72;101515.63;5007007;28;20116;-38
2022/03/17 03:13:07;;;;;;;14.48;12.98;;;;;;;18.67;42.64;101512.97;5005284;28;20042;-39
2022/03/17 03:15:33;;;;;;;16.65;14.05;;;;;;;18.67;42.71;101518.25;5006817;28;20026;-40
2022/03/17 03:17:59;;;;;;;15.55;13.43;;;;;;;18.67;42.64;101520.06;5005592;28;20041;-39
2022/03/17 03:20:25;;;;;;;13.55;12.02;;;;;;;18.66;42.70;101527.16;5006864;28;20026;-42
2022/03/17 03:22:50;;;;;;;15.02;12.55;;;;;;;18.66;42.72;101529.81;5006999;28;20033;-42
2022/03/17 03:25:16;;;;;;;15.45;13.85;;;;;;;18.65;42.74;101525.53;5006856;28;20180;-41
2022/03/17 03:27:43;;;;;;;16.02;14.40;;;;;;;18.65;42.60;101525.53;5006793;28;20065;-41
2022/03/17 03:30:11;;;;;;;14.38;12.85;;;;;;;18.65;42.66;101530.81;5006731;28;20029;-39
2022/03/17 03:32:39;;;;;;;13.18;11.27;;;;;;;18.63;42.77;101540.69;5005238;28;20025;-42
2022/03/17 03:37:22;;;;;;;17.45;11.98;;;;;;;18.62;42.81;101539.06;5006657;28;20552;-39
2022/03/17 03:37:51;;;;;;;13.63;11.90;;;;;;;18.61;42.84;101550.59;5007101;28;20125;-37
2022/03/17 03:40:17;;;;;;;13.88;12.02;;;;;;;18.59;42.75;101547.28;5005243;28;20113;-38
2022/03/17 03:42:42;;;;;;;13.02;10.77;;;;;;;18.57;43.00;101544.00;5006705;28;20029;-38
2022/03/17 03:45:08;;;;;;;10.73;9.63;;;;;;;18.57;43.12;101538.72;5009384;28;20107;-38
2022/03/17 03:47:34;;;;;;;11.48;10.38;;;;;;;18.57;42.96;101549.25;5010535;28;20037;-39
2022/03/17 03:49:59;;;;;;;13.93;10.48;;;;;;;18.58;43.12;101548.28;5010847;28;20036;-44
2022/03/17 03:52:25;;;;;;;10.18;9.13;;;;;;;18.57;43.00;101549.25;5010637;28;20133;-40
2022/03/17 03:54:50;;;;;;;9.27;8.32;;;;;;;18.57;43.07;101554.53;5010510;28;20022;-41
2022/03/17 03:57:16;;;;;;;8.75;7.85;;;;;;;18.57;43.11;101546.63;5010492;28;20072;-38
2022/03/17 03:59:42;;;;;;;10.02;8.13;;;;;;;18.55;43.11;101554.72;5010549;28;20096;-41
2022/03/17 04:02:09;;;;;;;9.30;8.30;;;;;;;18.56;43.05;101558.19;5008661;28;20052;-38
2022/03/17 04:04:38;;;;;;;7.93;7.13;;;;;;;18.55;43.19;101545.97;4992532;28;20026;-39
2022/03/17 04:07:05;;;;;;;10.18;6.90;;;;;;;18.54;43.35;101550.44;5010717;28;20121;-43
2022/03/17 04:09:39;;;;;;;10.30;7.28;;;;;;;18.54;43.39;101546.97;5010088;28;20141;-41
2022/03/17 04:12:07;;;;;;;7.63;6.93;;;;;;;18.55;43.36;101545.97;5009935;28;20077;-41
2022/03/17 04:14:32;;;;;;;14.07;7.80;;;;;;;18.54;43.37;101550.44;5010225;28;20558;-40
2022/03/17 04:16:59;;;;;;;7.97;6.88;;;;;;;18.56;43.51;101559.00;5010155;28;20030;-40
2022/03/17 04:19:25;;;;;;;6.78;6.07;;;;;;;18.56;43.37;101552.91;5009949;28;20066;-39
2022/03/17 04:21:51;;;;;;;8.15;6.78;;;;;;;18.56;43.44;101560.81;4992199;28;20057;-40
2022/03/17 04:24:17;;;;;;;8.00;6.13;;;;;;;18.56;43.52;101560.81;5009872;28;20073;-39
2022/03/17 04:26:44;;;;;;;8.75;6.40;;;;;;;18.55;43.57;101564.44;5009765;28;20481;-41
2022/03/17 04:29:10;;;;;;;6.97;6.22;;;;;;;18.55;43.59;101561.81;5010042;28;20090;-40
2022/03/17 04:31:41;;;;;;;7.22;6.45;;;;;;;18.54;43.50;101573.34;5008418;28;20084;-44
2022/03/17 04:34:07;;;;;;;7.72;6.10;;;;;;;18.54;43.58;101574.19;5009991;28;20037;-41
2022/03/17 04:36:34;;;;;;;7.28;6.38;;;;;;;18.54;43.61;101568.91;4991865;28;20057;-44
2022/03/17 04:39:01;;;;;;;7.57;6.00;;;;;;;18.55;43.54;101572.38;5010032;28;20029;-39
2022/03/17 04:41:27;;;;;;;6.85;5.55;;;;;;;18.52;43.59;101573.53;5009773;28;20034;-41
2022/03/17 04:43:52;;;;;;;6.00;5.32;;;;;;;18.51;43.54;101574.53;5009593;28;20065;-44
2022/03/17 04:46:18;;;;;;;6.32;5.72;;;;;;;18.50;43.61;101569.41;5009631;28;20026;-41
2022/03/17 04:48:43;;;;;;;7.80;5.95;;;;;;;18.50;43.49;101579.97;5009598;28;20200;-38
2022/03/17 04:51:09;;;;;;;6.72;5.03;;;;;;;18.49;43.48;101573.03;5009290;28;20026;-41
2022/03/17 04:53:35;;;;;;;6.50;5.28;;;;;;;18.50;43.57;101574.69;5009419;28;20076;-42
2022/03/17 04:56:06;;;;;;;6.68;5.93;;;;;;;18.50;43.69;101579.97;5008324;28;20033;-41
2022/03/17 04:58:33;;;;;;;5.85;5.35;;;;;;;18.49;43.72;101587.06;5009279;28;20049;-38
2022/03/17 05:01:00;;;;;;;6.65;5.70;;;;;;;18.48;43.66;101585.41;5009235;28;20030;-43
2022/03/17 05:03:26;;;;;;;6.13;5.53;;;;;;;18.48;43.67;101592.50;5009251;28;20033;-41
2022/03/17 05:05:52;;;;;;;6.25;4.93;;;;;;;18.48;43.80;101590.69;5009084;28;20233;-39
2022/03/17 05:08:18;;;;;;;7.70;5.43;;;;;;;18.47;43.82;101585.56;5009345;28;20400;-39
2022/03/17 05:10:44;;;;;;;4.95;4.45;;;;;;;18.46;43.71;101590.03;5008985;28;20120;-40
2022/03/17 05:13:11;;;;;;;5.35;4.85;;;;;;;18.47;43.88;101586.41;5007174;28;20046;-39
2022/03/17 05:15:37;;;;;;;6.18;5.35;;;;;;;18.46;43.73;101594.47;5009067;28;20041;-42
2022/03/17 05:18:06;;;;;;;5.30;4.90;;;;;;;18.47;43.86;101596.13;5008806;28;20432;-41
2022/03/17 05:20:33;;;;;;;6.07;5.47;;;;;;;18.46;43.86;101599.75;5008613;28;20026;-41
2022/03/17 05:22:58;;;;;;;6.60;5.10;;;;;;;18.46;44.08;101594.47;5008626;28;20040;-43
2022/03/17 05:25:24;;;;;;;5.82;5.07;;;;;;;18.45;43.84;101593.66;5016149;28;20025;-44
2022/03/17 05:27:50;;;;;;;4.68;4.22;;;;;;;18.46;43.88;101599.75;5027255;28;20021;-40
2022/03/17 05:30:19;;;;;;;5.15;4.63;;;;;;;18.46;43.92;101591.84;5015750;28;20114;-43
2022/03/17 05:32:46;;;;;;;4.97;4.50;;;;;;;18.47;43.91;101601.41;5026113;28;20484;-39
2022/03/17 05:35:13;;;;;;;5.85;5.22;;;;;;;18.47;43.88;101599.59;5048620;22;20053;-40
2022/03/17 05:37:39;;;;;;;5.32;4.82;;;;;;;18.47;43.82;101599.59;5047310;28;20025;-41
2022/03/17 05:40:13;;;;;;;11.88;5.40;;;;;;;18.49;44.09;101596.78;5047219;28;20064;-43
2022/03/17 05:42:43;;;;;;;7.40;5.60;;;;;;;18.53;44.68;101600.75;5028940;28;20033;-41
2022/03/17 05:45:12;;;;;;;12.02;7.53;;;;;;;18.56;45.94;101595.13;5047023;28;20036;-44
2022/03/17 05:47:41;;;;;;;9.77;6.78;;;;;;;18.57;45.76;101602.88;5029094;28;20029;-43
2022/03/17 05:50:10;;;;;;;10.27;6.05;;;;;;;18.54;45.25;101600.56;5047272;28;20028;-43
2022/03/17 05:52:42;;;;;;;9.10;4.80;;;;;;;18.54;44.92;101599.75;5029370;28;20059;-45
2022/03/17 05:55:09;;;;;;;5.00;4.53;;;;;;;18.54;44.63;101605.03;5028652;28;20032;-40
2022/03/17 05:57:35;;;;;;;5.05;4.45;;;;;;;18.54;44.30;101602.38;5047092;28;20044;-38
2022/03/17 06:00:02;;;;;;;6.68;5.57;;;;;;;18.55;44.22;101614.59;5046397;28;20033;-40
2022/03/17 06:02:27;;;;;;;5.90;5.30;;;;;;;18.55;44.06;101610.13;5047412;28;20064;-44
2022/03/17 06:04:53;;;;;;;9.70;6.50;;;;;;;18.55;43.91;101609.31;5047524;28;20451;-43
2022/03/17 06:07:18;;;;;;;6.05;5.43;;;;;;;18.55;43.60;101614.59;5047145;28;20035;-43
2022/03/17 06:09:44;;;;;;;6.93;5.45;;;;;;;18.54;43.50;101618.22;5046832;28;20155;-40
2022/03/17 06:12:09;;;;;;;6.65;4.75;;;;;;;18.53;43.58;101619.22;5047460;28;20028;-41
2022/03/17 06:14:35;;;;;;;8.32;5.55;;;;;;;18.52;43.42;101622.84;5047569;28;20029;-40
2022/03/17 06:17:03;;;;;;;6.40;5.15;;;;;;;18.51;43.39;101615.91;5047246;28;20226;-41
2022/03/17 06:19:29;;;;;;;6.10;5.13;;;;;;;18.51;43.35;101614.09;5029371;28;20132;-39
2022/03/17 06:21:54;;;;;;;6.65;5.50;;;;;;;18.50;43.28;101622.19;5046867;28;20147;-42
2022/03/17 06:24:20;;;;;;;8.02;4.78;;;;;;;18.49;43.37;101621.38;5047118;28;20465;-45
2022/03/17 06:26:45;;;;;;;8.15;5.72;;;;;;;18.48;43.37;101626.81;5046851;28;20029;-40
2022/03/17 06:29:11;;;;;;;5.13;4.68;;;;;;;18.47;43.38;101619.88;5047292;28;20478;-44
2022/03/17 06:31:38;;;;;;;6.28;5.07;;;;;;;18.47;43.28;101627.81;5028237;28;20029;-39
2022/03/17 06:34:03;;;;;;;6.43;5.43;;;;;;;18.46;43.57;101628.78;5028802;28;20056;-44
2022/03/17 06:36:29;;;;;;;6.68;5.93;;;;;;;18.46;43.36;101631.44;5029063;28;20036;-41
2022/03/17 06:38:54;;;;;;;8.05;5.65;;;;;;;18.46;43.26;101620.88;5047491;28;20065;-40
2022/03/17 06:41:20;;;;;;;8.10;5.75;;;;;;;18.46;43.29;101618.22;5046311;28;20384;-38
2022/03/17 06:43:45;;;;;;;5.95;5.35;;;;;;;18.46;43.23;101626.16;5044786;28;20048;-38
2022/03/17 06:46:11;;;;;;;8.55;5.25;;;;;;;18.46;43.12;101626.16;5047077;28;20052;-40
2022/03/17 06:48:36;;;;;;;6.53;5.68;;;;;;;18.46;43.19;101628.78;5046873;28;20047;-38
2022/03/17 06:51:02;;;;;;;7.65;6.00;;;;;;;18.45;43.10;101624.50;5046369;28;20090;-39
2022/03/17 06:53:27;;;;;;;6.90;4.60;;;;;;;18.45;43.10;101625.31;5046795;28;20313;-40
2022/03/17 06:55:53;;;;;;;6.32;5.72;;;;;;;18.45;43.07;101630.59;5046383;28;20112;-40
2022/03/17 06:58:18;;;;;;;6.15;5.45;;;;;;;18.44;43.10;101622.84;5047028;28;20442;-42
2022/03/17 07:00:44;;;;;;;7.53;5.25;;;;;;;18.42;43.08;101623.06;5046288;28;20111;-41
2022/03/17 07:03:09;;;;;;;6.03;5.05;;;;;;;18.42;43.22;101625.69;5046709;28;20071;-39
2022/03/17 07:05:35;;;;;;;8.05;4.68;;;;;;;18.41;43.11;101625.84;5046556;28;20091;-39
2022/03/17 07:08:00;;;;;;;7.57;5.15;;;;;;;18.40;43.13;101617.13;5046549;28;20087;-41
2022/03/17 07:10:27;;;;;;;5.13;4.43;;;;;;;18.40;42.85;101624.22;5046050;28;20036;-39
2022/03/17 07:12:54;;;;;;;5.68;5.10;;;;;;;18.43;43.05;101626.50;5010835;28;20028;-40
2022/03/17 07:15:19;;;;;;;7.63;5.22;;;;;;;18.45;42.97;101625.31;5045607;28;20073;-38
2022/03/17 07:17:45;;;;;;;5.30;4.75;;;;;;;18.47;43.06;101622.53;5046457;28;20059;-43
2022/03/17 07:20:13;;;;;;;6.43;4.85;;;;;;;18.52;43.08;101628.13;5045214;28;20028;-42
2022/03/17 07:22:40;;;;;;;6.32;5.25;;;;;;;18.58;43.02;101625.63;5042536;28;20032;-42
2022/03/17 07:25:06;;;;;;;10.23;5.85;;;;;;;18.64;43.50;101626.00;5027848;28;20036;-41
2022/03/17 07:27:43;;;;;;;8.15;5.38;;;;;;;18.68;43.82;101620.22;5045699;28;20032;-41
2022/03/17 07:30:20;;;;;;;10.50;4.55;;;;;;;18.73;43.84;101623.16;5046230;28;20087;-38
2022/03/17 07:32:52;;;;;;;4.97;4.50;;;;;;;18.75;43.96;101623.81;5045458;28;20128;-38
2022/03/17 07:35:18;;;;;;;8.00;5.00;;;;;;;18.81;43.95;101631.06;5028105;28;20053;-36
2022/03/17 07:37:44;;;;;;;5.25;4.40;;;;;;;18.85;43.90;101624.44;5046438;28;20029;-37
2022/03/17 07:40:11;;;;;;;6.97;4.85;;;;;;;18.90;43.73;101630.00;5045684;28;20037;-40
2022/03/17 07:42:36;;;;;;;5.18;4.47;;;;;;;18.97;43.70;101637.25;5045339;28;20033;-42
2022/03/17 07:45:03;;;;;;;8.15;4.95;;;;;;;19.01;43.53;101634.09;5046423;28;20510;-39
2022/03/17 07:47:28;;;;;;;5.20;4.13;;;;;;;19.08;43.50;101640.34;5046531;28;20025;-42
2022/03/17 07:49:54;;;;;;;6.78;4.57;;;;;;;19.14;43.34;101642.31;5046158;28;20033;-40
2022/03/17 07:52:20;;;;;;;4.90;4.40;;;;;;;19.21;43.40;101639.81;5045388;28;20495;-37
2022/03/17 07:54:48;;;;;;;6.38;4.85;;;;;;;19.28;43.33;101643.41;5045473;28;20124;-37
2022/03/17 07:57:14;;;;;;;6.65;4.35;;;;;;;19.33;43.79;101638.44;5046361;28;20013;-37
2022/03/17 07:59:40;;;;;;;8.32;4.30;;;;;;;19.38;44.19;101644.00;5046100;28;20029;-36
2022/03/17 08:02:06;;;;;;;14.80;3.90;;;;;;;19.42;44.58;101649.75;5044933;28;20040;-36
2022/03/17 08:04:31;;;;;;;11.30;4.30;;;;;;;19.48;44.43;101641.13;5046044;28;20071;-36
2022/03/17 08:07:00;;;;;;;8.60;4.57;;;;;;;19.51;44.35;101646.09;5027981;28;20065;-37
2022/03/17 08:09:29;;;;;;;13.35;4.25;;;;;;;19.54;44.13;101643.13;5027854;28;20056;-37
2022/03/17 08:11:54;;;;;;;8.40;3.95;;;;;;;19.57;44.02;101648.06;5044203;28;20108;-38
2022/03/17 08:14:20;;;;;;;6.78;4.03;;;;;;;19.57;44.17;101657.81;5043725;28;20187;-38
2022/03/17 08:16:45;;;;;;;14.75;4.68;;;;;;;19.54;44.16;101651.88;5045202;28;20260;-37
2022/03/17 08:19:11;;;;;;;7.07;3.75;;;;;;;19.53;44.05;101652.84;5045425;28;20071;-36
2022/03/17 08:21:40;;;;;;;7.32;4.43;;;;;;;19.53;43.96;101650.22;5043088;28;20049;-37
2022/03/17 08:24:07;;;;;;;13.27;4.60;;;;;;;19.52;43.96;101651.22;5046116;28;20145;-37
2022/03/17 08:26:33;;;;;;;9.18;4.25;;;;;;;19.51;43.80;101659.31;5045860;28;20052;-36
2022/03/17 08:29:00;;;;;;;7.45;4.07;;;;;;;19.50;43.59;101658.47;5046022;28;20029;-37
2022/03/17 08:31:26;;;;;;;7.75;4.43;;;;;;;19.50;43.80;101660.28;5047421;28;20534;-36
2022/03/17 08:33:52;;;;;;;7.15;4.13;;;;;;;19.49;43.76;101663.91;5047911;28;20021;-37
2022/03/17 08:36:17;;;;;;;4.50;3.80;;;;;;;19.47;43.67;101663.28;5048522;28;20033;-36
2022/03/17 08:38:43;;;;;;;5.70;4.07;;;;;;;19.44;43.62;101659.16;5049164;28;20040;-36
2022/03/17 08:41:08;;;;;;;4.97;3.85;;;;;;;19.43;43.76;101668.06;5048697;28;20028;-38
2022/03/17 08:43:34;;;;;;;5.90;3.90;;;;;;;19.41;43.78;101661.31;5047258;28;20044;-35
2022/03/17 08:51:27;;;;;;;6.35;3.97;;;;;;;19.35;43.82;101659.41;5036151;28;20151;-37
2022/03/17 08:53:53;;;;;;;5.57;4.30;;;;;;;19.33;43.84;101664.84;5047480;28;20119;-37
2022/03/17 08:56:19;;;;;;;7.90;4.40;;;;;;;19.33;43.79;101656.94;5044842;28;20029;-37
2022/03/17 08:58:45;;;;;;;9.75;5.82;;;;;;;19.32;43.45;101662.38;5041712;28;20021;-35
2022/03/17 09:01:11;;;;;;;11.27;7.57;;;;;;;19.30;43.07;101665.19;5043534;28;20064;-38
2022/03/17 09:03:36;;;;;;;10.82;8.93;;;;;;;19.28;42.04;101669.81;5046934;28;20553;-37
2022/03/17 09:06:02;;;;;;;10.45;8.55;;;;;;;19.27;41.63;101668.19;5045899;28;20040;-37
2022/03/17 09:08:28;;;;;;;12.40;10.35;;;;;;;19.27;41.01;101662.91;5047458;28;20033;-37
2022/03/17 09:10:57;;;;;;;17.33;10.75;;;;;;;19.26;40.63;101663.06;5048204;28;20082;-37
2022/03/17 09:13:28;;;;;;;16.27;10.18;;;;;;;19.25;40.12;101664.88;5047599;28;20135;-37
2022/03/17 09:15:55;;;;;;;14.88;9.70;;;;;;;19.25;40.01;101672.00;5046039;28;20420;-36
2022/03/17 09:18:21;;;;;;;16.17;9.63;;;;;;;19.27;40.14;101665.53;5045440;28;20051;-35
2022/03/17 09:20:48;;;;;;;17.15;10.27;;;;;;;19.29;40.51;101670.66;5030436;28;20444;-36
2022/03/17 09:23:14;;;;;;;10.57;9.10;;;;;;;19.30;40.65;101670.47;5047754;28;20057;-36
2022/03/17 09:25:40;;;;;;;13.10;9.43;;;;;;;19.29;40.70;101662.72;5048307;28;20060;-37
2022/03/17 09:28:06;;;;;;;16.45;9.27;;;;;;;19.28;40.93;101663.72;5046857;28;20443;-36
2022/03/17 09:30:32;;;;;;;14.70;9.30;;;;;;;19.27;41.33;101667.34;5047091;28;20037;-36
2022/03/17 09:32:59;;;;;;;10.05;8.30;;;;;;;19.26;41.45;101665.72;5048709;28;20021;-37
2022/03/17 09:35:25;;;;;;;12.95;8.35;;;;;;;19.24;41.73;101663.25;5029965;28;20067;-37
2022/03/17 09:37:51;;;;;;;12.65;8.45;;;;;;;19.24;41.80;101668.53;5047637;28;20578;-35
2022/03/17 09:40:17;;;;;;;12.75;8.05;;;;;;;19.23;41.97;101667.69;5046689;28;20086;-36
2022/03/17 09:42:43;;;;;;;17.58;8.60;;;;;;;19.22;42.12;101665.22;5040976;28;20411;-36
2022/03/17 09:45:10;;;;;;;11.15;6.70;;;;;;;19.22;42.19;101667.88;5036217;28;20037;-37
2022/03/17 09:47:38;;;;;;;8.15;6.80;;;;;;;19.21;42.19;101671.50;5047760;28;20116;-37
2022/03/17 09:50:07;;;;;;;10.90;7.05;;;;;;;19.20;42.12;101672.50;5046698;28;20032;-37
2022/03/17 09:52:35;;;;;;;12.70;7.28;;;;;;;19.18;42.05;101674.50;5046448;28;20056;-36
2022/03/17 09:55:01;;;;;;;9.98;7.15;;;;;;;19.17;42.07;101662.28;5047209;28;20029;-37
2022/03/17 09:57:26;;;;;;;10.63;6.57;;;;;;;19.16;41.97;101661.44;5047295;28;20055;-37
2022/03/17 09:59:53;;;;;;;7.68;6.93;;;;;;;19.15;42.04;101667.72;5047573;28;20035;-36
2022/03/17 10:02:20;;;;;;;8.18;7.32;;;;;;;19.14;41.92;101658.16;5046446;28;20555;-36
2022/03/17 10:04:50;;;;;;;9.20;7.20;;;;;;;19.15;41.93;101656.34;5046096;28;20456;-35
2022/03/17 10:07:18;;;;;;;10.13;6.32;;;;;;;19.14;41.95;101646.78;5046323;28;20430;-36
2022/03/17 10:09:44;;;;;;;7.78;6.80;;;;;;;19.13;41.95;101656.50;5029601;28;20048;-36
2022/03/17 10:12:12;;;;;;;10.50;7.03;;;;;;;19.12;41.81;101654.03;5046689;28;20028;-38
2022/03/17 10:14:39;;;;;;;11.75;6.95;;;;;;;19.12;41.92;101667.25;5047341;28;20029;-37
2022/03/17 10:17:10;;;;;;;14.05;7.22;;;;;;;19.12;42.04;101661.97;5047552;28;20032;-37
2022/03/17 10:19:36;;;;;;;8.65;6.78;;;;;;;19.12;41.97;101659.31;5029458;28;20037;-36
2022/03/17 10:22:14;;;;;;;9.35;6.72;;;;;;;19.11;42.09;101660.31;5047052;28;20403;-38
2022/03/17 10:24:50;;;;;;;7.65;6.47;;;;;;;19.11;41.94;101657.69;5047089;28;20562;-38
2022/03/17 10:27:35;;;;;;;9.30;6.40;;;;;;;19.13;41.81;101660.97;5047030;28;20033;-35
2022/03/17 10:30:03;;;;;;;9.85;6.70;;;;;;;19.13;41.95;101650.41;5047159;28;20040;-37
2022/03/17 10:32:28;;;;;;;10.43;5.95;;;;;;;19.13;42.03;101661.78;5023310;28;20091;-37
2022/03/17 10:34:55;;;;;;;8.98;6.50;;;;;;;19.13;41.94;101653.03;5027022;28;20444;-36
2022/03/17 10:37:22;;;;;;;9.07;6.55;;;;;;;19.14;41.93;101658.16;5025592;28;20049;-37
2022/03/17 10:39:57;;;;;;;8.15;7.30;;;;;;;19.14;41.96;101659.97;5027379;28;20029;-36
2022/03/17 10:42:25;;;;;;;9.35;7.55;;;;;;;19.14;41.95;101658.16;5031392;28;20507;-37
2022/03/17 10:44:54;;;;;;;9.73;5.93;;;;;;;19.14;41.95;101647.59;5046914;28;20060;-37
2022/03/17 10:47:31;;;;;;;9.68;7.22;;;;;;;19.12;41.97;101649.56;5047010;28;20037;-37
2022/03/17 10:50:23;;;;;;;11.95;7.15;;;;;;;19.11;41.96;101655.03;5047021;28;20033;-36
2022/03/17 10:52:58;;;;;;;9.45;6.78;;;;;;;19.12;42.06;101648.75;5039930;28;20504;-37
2022/03/17 10:55:29;;;;;;;7.10;6.38;;;;;;;19.11;42.23;101649.75;5046643;28;20427;-37
2022/03/17 10:58:16;;;;;;;9.40;6.75;;;;;;;19.12;42.11;101643.47;5046471;28;20067;-36
2022/03/17 11:00:44;;;;;;;6.97;6.28;;;;;;;19.11;41.97;101637.38;5046509;28;20599;-37
2022/03/17 11:03:10;;;;;;;7.70;5.93;;;;;;;19.12;41.79;101638.19;5045805;28;20474;-38
2022/03/17 11:05:36;;;;;;;7.68;6.10;;;;;;;19.11;41.88;101625.97;5046080;28;20032;-36
2022/03/17 11:08:02;;;;;;;7.60;6.10;;;;;;;19.11;41.75;101631.25;5046910;28;20044;-38
2022/03/17 11:10:28;;;;;;;6.75;6.15;;;;;;;19.09;41.85;101628.78;5045842;28;20047;-37
2022/03/17 11:12:54;;;;;;;9.13;6.30;;;;;;;19.08;41.79;101623.69;5045301;28;20032;-36
2022/03/17 11:15:28;;;;;;;6.03;5.43;;;;;;;19.06;41.75;101623.84;5045406;28;20037;-37
2022/03/17 11:17:59;;;;;;;6.10;5.35;;;;;;;19.05;41.75;101619.56;5045151;28;20518;-37
2022/03/17 11:20:25;;;;;;;8.35;6.20;;;;;;;19.05;41.78;101622.19;5045274;28;20136;-36
2022/03/17 11:23:20;;;;;;;8.40;5.55;;;;;;;19.03;41.77;101618.09;5046561;28;20112;-37
2022/03/17 11:25:54;;;;;;;7.15;5.97;;;;;;;19.01;41.82;101612.16;5046461;28;20037;-37
2022/03/17 11:28:33;;;;;;;6.13;5.25;;;;;;;19.01;41.83;101612.16;5024539;28;20489;-38
2022/03/17 11:31:01;;;;;;;7.82;5.40;;;;;;;19.00;41.75;101608.69;5036964;28;20036;-37
2022/03/17 11:33:31;;;;;;;7.05;6.35;;;;;;;19.02;41.72;101605.88;5046179;28;20032;-37